sensor_id;sensor_type;location;lat;lon;timestamp;pressure;altitude;pressure_sealevel;temperature;humidity
34983;BME280;21187;50.976;13.720;2024-03-25T00:00:26;96705.41;;;6.80;59.54
34983;BME280;21187;50.976;13.720;2024-03-25T00:05:27;96701.16;;;6.79;59.66
34983;BME280;21187;50.976;13.720;2024-03-25T00:10:28;96700.84;;;6.81;59.96
34983;BME280;21187;50.976;13.720;2024-03-25T00:15:28;96710.06;;;6.83;60.19
34983;BME280;21187;50.976;13.720;2024-03-25T00:20:29;96709.72;;;6.85;60.23
34983;BME280;21187;50.976;13.720;2024-03-25T00:25:30;96700.47;;;6.82;60.55
34983;BME280;21187;50.976;13.720;2024-03-25T00:30:31;96712.81;;;6.87;60.34
34983;BME280;21187;50.976;13.720;2024-03-25T00:35:33;96709.06;;;6.92;60.05
34983;BME280;21187;50.976;13.720;2024-03-25T00:40:33;96706.91;;;7.01;59.75
34983;BME280;21187;50.976;13.720;2024-03-25T00:45:35;96710.81;;;7.07;59.47
34983;BME280;21187;50.976;13.720;2024-03-25T00:50:35;96707.00;;;7.08;59.63
34983;BME280;21187;50.976;13.720;2024-03-25T00:55:36;96720.66;;;6.96;59.99
34983;BME280;21187;50.976;13.720;2024-03-25T01:00:37;96704.28;;;6.81;60.36
34983;BME280;21187;50.976;13.720;2024-03-25T01:05:38;96714.59;;;6.76;60.82
34983;BME280;21187;50.976;13.720;2024-03-25T01:10:39;96714.09;;;6.70;60.81
34983;BME280;21187;50.976;13.720;2024-03-25T01:15:39;96705.03;;;6.78;61.13
34983;BME280;21187;50.976;13.720;2024-03-25T01:20:40;96720.53;;;6.89;60.66
34983;BME280;21187;50.976;13.720;2024-03-25T01:25:41;96729.75;;;6.88;60.75
34983;BME280;21187;50.976;13.720;2024-03-25T01:30:42;96737.34;;;6.82;60.97
34983;BME280;21187;50.976;13.720;2024-03-25T01:35:44;96754.28;;;6.82;60.87
34983;BME280;21187;50.976;13.720;2024-03-25T01:40:44;96749.38;;;6.88;60.43
34983;BME280;21187;50.976;13.720;2024-03-25T01:45:45;96771.13;;;6.79;60.24
34983;BME280;21187;50.976;13.720;2024-03-25T01:50:46;96769.47;;;6.71;59.90
34983;BME280;21187;50.976;13.720;2024-03-25T01:55:48;96762.88;;;6.45;60.30
34983;BME280;21187;50.976;13.720;2024-03-25T02:00:53;96768.84;;;6.35;60.35
34983;BME280;21187;50.976;13.720;2024-03-25T02:05:57;96772.22;;;6.32;60.25
34983;BME280;21187;50.976;13.720;2024-03-25T02:11:00;96774.25;;;6.39;59.83
34983;BME280;21187;50.976;13.720;2024-03-25T02:16:01;96771.94;;;6.37;59.85
34983;BME280;21187;50.976;13.720;2024-03-25T02:21:02;96771.72;;;6.46;60.07
34983;BME280;21187;50.976;13.720;2024-03-25T02:26:03;96773.47;;;6.58;59.78
34983;BME280;21187;50.976;13.720;2024-03-25T02:31:04;96784.47;;;6.72;59.85
34983;BME280;21187;50.976;13.720;2024-03-25T02:36:05;96784.94;;;6.78;59.69
34983;BME280;21187;50.976;13.720;2024-03-25T02:41:06;96787.09;;;6.69;60.09
34983;BME280;21187;50.976;13.720;2024-03-25T02:46:07;96784.34;;;6.65;60.67
34983;BME280;21187;50.976;13.720;2024-03-25T02:51:07;96799.50;;;6.73;60.60
34983;BME280;21187;50.976;13.720;2024-03-25T02:56:08;96791.13;;;6.78;60.85
34983;BME280;21187;50.976;13.720;2024-03-25T03:01:09;96795.41;;;6.83;60.85
34983;BME280;21187;50.976;13.720;2024-03-25T03:06:10;96813.47;;;6.82;61.17
34983;BME280;21187;50.976;13.720;2024-03-25T03:11:11;96822.78;;;6.89;60.54
34983;BME280;21187;50.976;13.720;2024-03-25T03:16:11;96816.72;;;6.92;61.11
34983;BME280;21187;50.976;13.720;2024-03-25T03:21:12;96824.44;;;6.93;61.12
34983;BME280;21187;50.976;13.720;2024-03-25T03:26:13;96841.34;;;6.94;61.13
34983;BME280;21187;50.976;13.720;2024-03-25T03:31:14;96845.19;;;6.93;60.90
34983;BME280;21187;50.976;13.720;2024-03-25T03:36:16;96842.13;;;6.94;60.82
34983;BME280;21187;50.976;13.720;2024-03-25T03:41:18;96853.66;;;6.95;60.83
34983;BME280;21187;50.976;13.720;2024-03-25T03:46:18;96849.00;;;6.92;61.05
34983;BME280;21187;50.976;13.720;2024-03-25T03:51:19;96862.75;;;6.87;61.15
34983;BME280;21187;50.976;13.720;2024-03-25T03:56:20;96868.13;;;6.87;61.08
34983;BME280;21187;50.976;13.720;2024-03-25T04:01:21;96865.53;;;6.90;60.81
34983;BME280;21187;50.976;13.720;2024-03-25T04:06:22;96867.41;;;6.90;61.08
34983;BME280;21187;50.976;13.720;2024-03-25T04:11:23;96876.75;;;6.96;60.50
34983;BME280;21187;50.976;13.720;2024-03-25T04:16:23;96886.03;;;6.98;60.72
34983;BME280;21187;50.976;13.720;2024-03-25T04:21:24;96890.63;;;6.98;60.70
34983;BME280;21187;50.976;13.720;2024-03-25T04:26:25;96907.66;;;7.02;60.38
34983;BME280;21187;50.976;13.720;2024-03-25T04:31:25;96909.63;;;7.05;60.07
34983;BME280;21187;50.976;13.720;2024-03-25T04:36:26;96912.41;;;7.12;59.70
34983;BME280;21187;50.976;13.720;2024-03-25T04:41:27;96923.06;;;7.05;59.70
34983;BME280;21187;50.976;13.720;2024-03-25T04:46:28;96933.00;;;7.01;59.71
34983;BME280;21187;50.976;13.720;2024-03-25T04:51:29;96933.84;;;7.05;59.64
34983;BME280;21187;50.976;13.720;2024-03-25T04:56:30;96943.88;;;7.08;59.63
34983;BME280;21187;50.976;13.720;2024-03-25T05:01:31;96955.38;;;7.05;59.42
34983;BME280;21187;50.976;13.720;2024-03-25T05:06:32;96963.84;;;7.07;59.21
34983;BME280;21187;50.976;13.720;2024-03-25T05:11:33;96967.63;;;7.03;59.32
34983;BME280;21187;50.976;13.720;2024-03-25T05:16:34;96969.25;;;7.07;59.48
34983;BME280;21187;50.976;13.720;2024-03-25T05:21:34;96972.09;;;7.14;59.22
34983;BME280;21187;50.976;13.720;2024-03-25T05:26:35;96984.06;;;7.17;59.10
34983;BME280;21187;50.976;13.720;2024-03-25T05:31:38;96988.66;;;7.16;59.28
34983;BME280;21187;50.976;13.720;2024-03-25T05:36:40;97001.97;;;7.09;59.36
34983;BME280;21187;50.976;13.720;2024-03-25T05:41:41;97000.00;;;7.06;59.68
34983;BME280;21187;50.976;13.720;2024-03-25T05:46:42;97024.72;;;7.12;59.34
34983;BME280;21187;50.976;13.720;2024-03-25T05:51:42;97007.81;;;7.11;59.31
34983;BME280;21187;50.976;13.720;2024-03-25T05:56:44;97013.59;;;6.94;59.16
34983;BME280;21187;50.976;13.720;2024-03-25T06:01:44;97019.97;;;6.86;59.01
34983;BME280;21187;50.976;13.720;2024-03-25T06:06:45;97016.84;;;6.64;59.35
34983;BME280;21187;50.976;13.720;2024-03-25T06:11:46;97028.56;;;6.56;59.96
34983;BME280;21187;50.976;13.720;2024-03-25T06:16:47;97036.81;;;6.63;60.75
34983;BME280;21187;50.976;13.720;2024-03-25T06:21:48;97044.06;;;6.78;60.44
34983;BME280;21187;50.976;13.720;2024-03-25T06:26:49;97038.25;;;6.96;60.28
34983;BME280;21187;50.976;13.720;2024-03-25T06:31:52;97041.53;;;7.05;60.09
34983;BME280;21187;50.976;13.720;2024-03-25T06:37:11;97055.47;;;7.11;60.11
34983;BME280;21187;50.976;13.720;2024-03-25T06:42:12;97053.97;;;7.13;59.90
34983;BME280;21187;50.976;13.720;2024-03-25T06:47:13;97067.16;;;7.19;59.65
34983;BME280;21187;50.976;13.720;2024-03-25T06:52:14;97078.88;;;7.26;59.82
34983;BME280;21187;50.976;13.720;2024-03-25T06:57:14;97079.50;;;7.39;59.29
34983;BME280;21187;50.976;13.720;2024-03-25T07:02:15;97087.31;;;7.44;58.78
34983;BME280;21187;50.976;13.720;2024-03-25T07:07:16;97086.72;;;7.55;59.24
34983;BME280;21187;50.976;13.720;2024-03-25T07:12:17;97091.81;;;7.60;58.94
34983;BME280;21187;50.976;13.720;2024-03-25T07:17:18;97105.84;;;7.69;58.70
34983;BME280;21187;50.976;13.720;2024-03-25T07:22:19;97102.44;;;7.72;58.47
34983;BME280;21187;50.976;13.720;2024-03-25T07:27:20;97121.34;;;7.76;58.32
34983;BME280;21187;50.976;13.720;2024-03-25T07:32:20;97119.88;;;7.78;58.38
34983;BME280;21187;50.976;13.720;2024-03-25T07:37:21;97124.56;;;7.81;58.08
34983;BME280;21187;50.976;13.720;2024-03-25T07:42:22;97127.66;;;7.83;57.50
34983;BME280;21187;50.976;13.720;2024-03-25T07:47:23;97134.03;;;7.95;57.39
34983;BME280;21187;50.976;13.720;2024-03-25T07:52:23;97155.88;;;8.09;56.88
34983;BME280;21187;50.976;13.720;2024-03-25T07:57:24;97140.59;;;8.17;57.03
34983;BME280;21187;50.976;13.720;2024-03-25T08:02:25;97163.19;;;8.32;56.57
34983;BME280;21187;50.976;13.720;2024-03-25T08:07:25;97160.94;;;8.34;55.74
34983;BME280;21187;50.976;13.720;2024-03-25T08:12:26;97174.28;;;8.27;55.79
34983;BME280;21187;50.976;13.720;2024-03-25T08:17:27;97179.59;;;8.23;55.57
34983;BME280;21187;50.976;13.720;2024-03-25T08:22:28;97175.41;;;8.26;55.91
34983;BME280;21187;50.976;13.720;2024-03-25T08:27:29;97184.66;;;8.25;55.53
34983;BME280;21187;50.976;13.720;2024-03-25T08:32:30;97194.06;;;8.35;55.29
34983;BME280;21187;50.976;13.720;2024-03-25T08:37:33;97188.53;;;8.27;55.55
34983;BME280;21187;50.976;13.720;2024-03-25T08:42:33;97193.25;;;8.30;55.81
34983;BME280;21187;50.976;13.720;2024-03-25T08:47:34;97189.88;;;8.37;55.47
34983;BME280;21187;50.976;13.720;2024-03-25T08:52:35;97203.38;;;8.37;55.30
34983;BME280;21187;50.976;13.720;2024-03-25T08:57:36;97200.03;;;8.44;55.04
34983;BME280;21187;50.976;13.720;2024-03-25T09:02:37;97209.06;;;8.52;55.22
34983;BME280;21187;50.976;13.720;2024-03-25T09:07:37;97217.38;;;8.66;54.79
34983;BME280;21187;50.976;13.720;2024-03-25T09:12:39;97211.94;;;8.86;55.13
34983;BME280;21187;50.976;13.720;2024-03-25T09:17:40;97221.47;;;9.06;54.15
34983;BME280;21187;50.976;13.720;2024-03-25T09:22:41;97220.78;;;9.09;53.64
34983;BME280;21187;50.976;13.720;2024-03-25T09:27:46;97223.88;;;9.11;53.05
34983;BME280;21187;50.976;13.720;2024-03-25T09:32:46;97244.34;;;9.12;53.15
34983;BME280;21187;50.976;13.720;2024-03-25T09:37:48;97239.34;;;9.14;53.00
34983;BME280;21187;50.976;13.720;2024-03-25T09:42:52;97251.72;;;9.15;53.21
34983;BME280;21187;50.976;13.720;2024-03-25T09:47:56;97253.75;;;9.22;52.41
34983;BME280;21187;50.976;13.720;2024-03-25T09:52:57;97282.09;;;9.32;52.36
34983;BME280;21187;50.976;13.720;2024-03-25T09:57:58;97260.31;;;9.21;52.00
34983;BME280;21187;50.976;13.720;2024-03-25T10:03:00;97277.16;;;9.14;52.20
34983;BME280;21187;50.976;13.720;2024-03-25T10:08:01;97290.94;;;9.06;51.81
34983;BME280;21187;50.976;13.720;2024-03-25T10:13:01;97289.94;;;8.91;52.20
34983;BME280;21187;50.976;13.720;2024-03-25T10:18:02;97286.06;;;8.92;52.05
34983;BME280;21187;50.976;13.720;2024-03-25T10:23:03;97283.22;;;9.08;52.39
34983;BME280;21187;50.976;13.720;2024-03-25T10:28:04;97282.50;;;9.34;52.39
34983;BME280;21187;50.976;13.720;2024-03-25T10:33:06;97282.25;;;9.43;51.23
34983;BME280;21187;50.976;13.720;2024-03-25T10:38:09;97275.63;;;9.40;50.55
34983;BME280;21187;50.976;13.720;2024-03-25T10:43:11;97281.47;;;9.42;50.76
34983;BME280;21187;50.976;13.720;2024-03-25T10:48:27;97282.41;;;9.54;50.88
34983;BME280;21187;50.976;13.720;2024-03-25T10:53:29;97277.25;;;9.72;50.30
34983;BME280;21187;50.976;13.720;2024-03-25T10:58:31;97271.72;;;9.91;50.22
34983;BME280;21187;50.976;13.720;2024-03-25T11:03:34;97264.97;;;10.08;50.42
34983;BME280;21187;50.976;13.720;2024-03-25T11:08:35;97274.72;;;10.16;49.77
34983;BME280;21187;50.976;13.720;2024-03-25T11:13:36;97266.16;;;10.14;49.17
34983;BME280;21187;50.976;13.720;2024-03-25T11:18:37;97273.97;;;10.20;49.24
34983;BME280;21187;50.976;13.720;2024-03-25T11:23:43;97266.28;;;10.25;49.40
34983;BME280;21187;50.976;13.720;2024-03-25T11:28:45;97276.41;;;10.28;49.47
34983;BME280;21187;50.976;13.720;2024-03-25T11:33:47;97265.19;;;10.30;48.59
34983;BME280;21187;50.976;13.720;2024-03-25T11:38:57;97267.16;;;10.33;48.61
34983;BME280;21187;50.976;13.720;2024-03-25T11:43:58;97276.06;;;10.33;48.58
34983;BME280;21187;50.976;13.720;2024-03-25T11:48:59;97268.72;;;10.34;47.46
34983;BME280;21187;50.976;13.720;2024-03-25T11:54:03;97264.81;;;10.31;47.11
34983;BME280;21187;50.976;13.720;2024-03-25T11:59:04;97275.94;;;10.23;47.03
34983;BME280;21187;50.976;13.720;2024-03-25T12:04:15;97280.13;;;10.16;47.18
34983;BME280;21187;50.976;13.720;2024-03-25T12:09:16;97277.75;;;10.11;47.10
34983;BME280;21187;50.976;13.720;2024-03-25T12:14:35;97283.97;;;10.15;48.07
34983;BME280;21187;50.976;13.720;2024-03-25T12:19:36;97298.56;;;10.07;47.73
34983;BME280;21187;50.976;13.720;2024-03-25T12:24:37;97299.28;;;10.04;48.02
34983;BME280;21187;50.976;13.720;2024-03-25T12:29:38;97297.75;;;10.03;48.95
34983;BME280;21187;50.976;13.720;2024-03-25T12:34:39;97294.56;;;9.97;48.70
34983;BME280;21187;50.976;13.720;2024-03-25T12:39:47;97304.94;;;9.92;49.37
34983;BME280;21187;50.976;13.720;2024-03-25T12:44:48;97297.03;;;9.53;49.10
34983;BME280;21187;50.976;13.720;2024-03-25T12:49:49;97299.75;;;9.26;49.57
34983;BME280;21187;50.976;13.720;2024-03-25T12:54:49;97307.31;;;9.16;50.03
34983;BME280;21187;50.976;13.720;2024-03-25T12:59:50;97308.97;;;9.25;50.90
34983;BME280;21187;50.976;13.720;2024-03-25T13:04:51;97307.03;;;9.48;50.33
34983;BME280;21187;50.976;13.720;2024-03-25T13:09:52;97305.34;;;9.67;50.30
34983;BME280;21187;50.976;13.720;2024-03-25T13:14:52;97301.63;;;9.75;50.51
34983;BME280;21187;50.976;13.720;2024-03-25T13:19:53;97295.34;;;9.98;49.67
34983;BME280;21187;50.976;13.720;2024-03-25T13:24:54;97307.00;;;10.02;50.31
34983;BME280;21187;50.976;13.720;2024-03-25T13:29:55;97299.69;;;10.06;49.85
34983;BME280;21187;50.976;13.720;2024-03-25T13:34:55;97302.53;;;10.17;49.05
34983;BME280;21187;50.976;13.720;2024-03-25T13:39:56;97303.47;;;10.28;49.39
34983;BME280;21187;50.976;13.720;2024-03-25T13:44:57;97306.81;;;10.48;48.58
34983;BME280;21187;50.976;13.720;2024-03-25T13:50:04;97296.78;;;10.53;48.24
34983;BME280;21187;50.976;13.720;2024-03-25T13:55:07;97299.69;;;10.71;48.90
34983;BME280;21187;50.976;13.720;2024-03-25T14:00:09;97287.00;;;10.82;48.23
34983;BME280;21187;50.976;13.720;2024-03-25T14:05:14;97285.41;;;10.74;47.22
34983;BME280;21187;50.976;13.720;2024-03-25T14:10:15;97282.53;;;10.97;47.63
34983;BME280;21187;50.976;13.720;2024-03-25T14:15:16;97274.22;;;11.24;46.90
34983;BME280;21187;50.976;13.720;2024-03-25T14:20:16;97273.97;;;11.43;46.04
34983;BME280;21187;50.976;13.720;2024-03-25T14:25:17;97263.63;;;11.63;45.89
34983;BME280;21187;50.976;13.720;2024-03-25T14:30:18;97265.25;;;11.75;45.38
34983;BME280;21187;50.976;13.720;2024-03-25T14:35:19;97263.69;;;11.74;45.55
34983;BME280;21187;50.976;13.720;2024-03-25T14:40:21;97253.78;;;12.07;45.32
34983;BME280;21187;50.976;13.720;2024-03-25T14:45:22;97260.84;;;12.34;45.21
34983;BME280;21187;50.976;13.720;2024-03-25T14:50:22;97251.59;;;12.53;44.79
34983;BME280;21187;50.976;13.720;2024-03-25T14:55:23;97245.38;;;12.52;44.43
34983;BME280;21187;50.976;13.720;2024-03-25T15:00:24;97239.19;;;12.52;44.46
34983;BME280;21187;50.976;13.720;2024-03-25T15:05:24;97249.22;;;12.40;44.23
34983;BME280;21187;50.976;13.720;2024-03-25T15:10:26;97238.72;;;12.28;43.80
34983;BME280;21187;50.976;13.720;2024-03-25T15:15:27;97230.97;;;12.23;43.65
34983;BME280;21187;50.976;13.720;2024-03-25T15:20:28;97232.84;;;12.11;43.25
34983;BME280;21187;50.976;13.720;2024-03-25T15:25:29;97244.47;;;12.08;44.05
34983;BME280;21187;50.976;13.720;2024-03-25T15:30:30;97238.31;;;12.15;44.06
34983;BME280;21187;50.976;13.720;2024-03-25T15:35:31;97239.44;;;12.14;44.26
34983;BME280;21187;50.976;13.720;2024-03-25T15:40:32;97241.38;;;12.06;44.04
34983;BME280;21187;50.976;13.720;2024-03-25T15:45:33;97231.97;;;11.93;44.00
34983;BME280;21187;50.976;13.720;2024-03-25T15:50:33;97235.09;;;11.88;44.35
34983;BME280;21187;50.976;13.720;2024-03-25T15:55:34;97237.34;;;11.78;44.31
34983;BME280;21187;50.976;13.720;2024-03-25T16:00:35;97228.44;;;11.78;44.65
34983;BME280;21187;50.976;13.720;2024-03-25T16:05:37;97228.84;;;11.83;44.49
34983;BME280;21187;50.976;13.720;2024-03-25T16:10:39;97221.06;;;11.78;44.30
34983;BME280;21187;50.976;13.720;2024-03-25T16:15:39;97218.75;;;11.77;43.79
34983;BME280;21187;50.976;13.720;2024-03-25T16:20:40;97217.13;;;11.58;44.12
34983;BME280;21187;50.976;13.720;2024-03-25T16:25:41;97215.19;;;11.62;44.29
34983;BME280;21187;50.976;13.720;2024-03-25T16:30:43;97205.53;;;11.72;44.02
34983;BME280;21187;50.976;13.720;2024-03-25T16:35:43;97211.72;;;11.65;43.97
34983;BME280;21187;50.976;13.720;2024-03-25T16:40:44;97209.75;;;11.62;43.81
34983;BME280;21187;50.976;13.720;2024-03-25T16:45:45;97212.47;;;11.62;44.15
34983;BME280;21187;50.976;13.720;2024-03-25T16:50:46;97205.91;;;11.63;43.94
34983;BME280;21187;50.976;13.720;2024-03-25T16:55:50;97205.84;;;11.56;44.22
34983;BME280;21187;50.976;13.720;2024-03-25T17:00:51;97207.78;;;11.52;44.25
34983;BME280;21187;50.976;13.720;2024-03-25T17:05:52;97211.22;;;11.45;44.72
34983;BME280;21187;50.976;13.720;2024-03-25T17:10:54;97208.47;;;11.34;44.47
34983;BME280;21187;50.976;13.720;2024-03-25T17:15:55;97204.53;;;11.28;44.63
34983;BME280;21187;50.976;13.720;2024-03-25T17:20:59;97207.16;;;11.13;44.63
34983;BME280;21187;50.976;13.720;2024-03-25T17:26:04;97210.56;;;11.03;45.19
34983;BME280;21187;50.976;13.720;2024-03-25T17:31:09;97213.53;;;10.87;45.42
34983;BME280;21187;50.976;13.720;2024-03-25T17:36:11;97214.56;;;10.68;45.17
34983;BME280;21187;50.976;13.720;2024-03-25T17:41:12;97220.22;;;10.52;45.30
34983;BME280;21187;50.976;13.720;2024-03-25T17:46:13;97222.72;;;10.34;45.70
34983;BME280;21187;50.976;13.720;2024-03-25T17:51:14;97218.63;;;10.13;46.37
34983;BME280;21187;50.976;13.720;2024-03-25T17:56:15;97213.41;;;9.94;46.36
34983;BME280;21187;50.976;13.720;2024-03-25T18:01:16;97236.06;;;9.86;46.13
34983;BME280;21187;50.976;13.720;2024-03-25T18:06:16;97240.78;;;9.62;46.34
34983;BME280;21187;50.976;13.720;2024-03-25T18:11:18;97234.38;;;9.43;47.16
34983;BME280;21187;50.976;13.720;2024-03-25T18:16:18;97237.19;;;9.24;47.13
34983;BME280;21187;50.976;13.720;2024-03-25T18:21:20;97227.31;;;9.08;47.51
34983;BME280;21187;50.976;13.720;2024-03-25T18:26:20;97237.69;;;9.06;47.05
34983;BME280;21187;50.976;13.720;2024-03-25T18:31:21;97235.28;;;9.01;47.10
34983;BME280;21187;50.976;13.720;2024-03-25T18:36:22;97242.09;;;8.91;47.44
34983;BME280;21187;50.976;13.720;2024-03-25T18:41:23;97238.69;;;8.71;47.61
34983;BME280;21187;50.976;13.720;2024-03-25T18:46:24;97242.38;;;8.63;48.25
34983;BME280;21187;50.976;13.720;2024-03-25T18:51:25;97240.22;;;8.72;47.57
34983;BME280;21187;50.976;13.720;2024-03-25T18:56:27;97240.22;;;8.72;47.55
34983;BME280;21187;50.976;13.720;2024-03-25T19:01:28;97233.28;;;8.71;47.69
34983;BME280;21187;50.976;13.720;2024-03-25T19:06:29;97237.13;;;8.70;47.70
34983;BME280;21187;50.976;13.720;2024-03-25T19:11:30;97233.59;;;8.66;47.09
34983;BME280;21187;50.976;13.720;2024-03-25T19:16:31;97244.59;;;8.57;47.62
34983;BME280;21187;50.976;13.720;2024-03-25T19:21:32;97231.47;;;8.56;46.99
34983;BME280;21187;50.976;13.720;2024-03-25T19:26:33;97228.34;;;8.54;47.35
34983;BME280;21187;50.976;13.720;2024-03-25T19:31:33;97226.22;;;8.43;47.97
34983;BME280;21187;50.976;13.720;2024-03-25T19:36:34;97221.56;;;8.21;47.86
34983;BME280;21187;50.976;13.720;2024-03-25T19:41:35;97216.63;;;8.03;48.12
34983;BME280;21187;50.976;13.720;2024-03-25T19:46:36;97212.59;;;7.93;48.27
34983;BME280;21187;50.976;13.720;2024-03-25T19:51:37;97209.09;;;7.93;47.80
34983;BME280;21187;50.976;13.720;2024-03-25T19:56:38;97209.91;;;7.93;48.21
34983;BME280;21187;50.976;13.720;2024-03-25T20:01:39;97202.66;;;7.97;48.32
34983;BME280;21187;50.976;13.720;2024-03-25T20:06:40;97197.25;;;7.97;48.09
34983;BME280;21187;50.976;13.720;2024-03-25T20:11:40;97206.41;;;7.93;47.74
34983;BME280;21187;50.976;13.720;2024-03-25T20:16:41;97204.78;;;7.88;47.95
34983;BME280;21187;50.976;13.720;2024-03-25T20:21:42;97209.38;;;7.88;48.06
34983;BME280;21187;50.976;13.720;2024-03-25T20:26:44;97198.97;;;7.86;48.04
34983;BME280;21187;50.976;13.720;2024-03-25T20:31:46;97199.88;;;7.74;47.73
34983;BME280;21187;50.976;13.720;2024-03-25T20:36:47;97218.53;;;7.63;48.08
34983;BME280;21187;50.976;13.720;2024-03-25T20:41:47;97211.34;;;7.52;48.17
34983;BME280;21187;50.976;13.720;2024-03-25T20:46:48;97212.34;;;7.43;48.39
34983;BME280;21187;50.976;13.720;2024-03-25T20:51:49;97204.81;;;7.33;48.57
34983;BME280;21187;50.976;13.720;2024-03-25T20:56:50;97206.47;;;7.22;48.68
34983;BME280;21187;50.976;13.720;2024-03-25T21:01:51;97213.63;;;6.98;48.66
34983;BME280;21187;50.976;13.720;2024-03-25T21:06:51;97207.25;;;6.87;49.27
34983;BME280;21187;50.976;13.720;2024-03-25T21:11:52;97208.88;;;6.91;48.92
34983;BME280;21187;50.976;13.720;2024-03-25T21:16:53;97202.28;;;6.89;48.85
34983;BME280;21187;50.976;13.720;2024-03-25T21:21:54;97210.91;;;6.78;49.00
34983;BME280;21187;50.976;13.720;2024-03-25T21:26:54;97198.81;;;6.72;48.97
34983;BME280;21187;50.976;13.720;2024-03-25T21:31:55;97193.00;;;6.70;48.97
34983;BME280;21187;50.976;13.720;2024-03-25T21:36:56;97188.16;;;6.60;49.09
34983;BME280;21187;50.976;13.720;2024-03-25T21:41:57;97184.31;;;6.61;48.90
34983;BME280;21187;50.976;13.720;2024-03-25T21:46:57;97185.03;;;6.58;49.25
34983;BME280;21187;50.976;13.720;2024-03-25T21:51:58;97198.72;;;6.53;49.16
34983;BME280;21187;50.976;13.720;2024-03-25T21:56:59;97203.94;;;6.45;49.16
34983;BME280;21187;50.976;13.720;2024-03-25T22:02:00;97205.75;;;6.41;49.06
34983;BME280;21187;50.976;13.720;2024-03-25T22:07:01;97196.66;;;6.46;49.34
34983;BME280;21187;50.976;13.720;2024-03-25T22:12:02;97189.53;;;6.54;49.13
34983;BME280;21187;50.976;13.720;2024-03-25T22:17:03;97188.84;;;6.57;49.04
34983;BME280;21187;50.976;13.720;2024-03-25T22:22:04;97183.47;;;6.57;49.10
34983;BME280;21187;50.976;13.720;2024-03-25T22:27:04;97179.66;;;6.58;48.98
34983;BME280;21187;50.976;13.720;2024-03-25T22:32:05;97171.75;;;6.49;48.97
34983;BME280;21187;50.976;13.720;2024-03-25T22:37:07;97168.19;;;6.29;49.22
34983;BME280;21187;50.976;13.720;2024-03-25T22:42:08;97164.69;;;6.12;49.24
34983;BME280;21187;50.976;13.720;2024-03-25T22:47:09;97164.53;;;5.93;49.55
34983;BME280;21187;50.976;13.720;2024-03-25T22:52:10;97149.84;;;5.74;49.71
34983;BME280;21187;50.976;13.720;2024-03-25T22:57:11;97145.16;;;5.71;49.85
34983;BME280;21187;50.976;13.720;2024-03-25T23:02:12;97144.28;;;5.67;50.03
34983;BME280;21187;50.976;13.720;2024-03-25T23:07:12;97140.94;;;5.58;49.89
34983;BME280;21187;50.976;13.720;2024-03-25T23:12:14;97141.66;;;5.55;50.10
34983;BME280;21187;50.976;13.720;2024-03-25T23:17:15;97128.47;;;5.49;50.30
34983;BME280;21187;50.976;13.720;2024-03-25T23:22:16;97135.53;;;5.42;50.17
34983;BME280;21187;50.976;13.720;2024-03-25T23:27:16;97142.19;;;5.20;50.16
34983;BME280;21187;50.976;13.720;2024-03-25T23:32:17;97145.34;;;5.09;50.67
34983;BME280;21187;50.976;13.720;2024-03-25T23:37:18;97145.38;;;4.97;50.89
34983;BME280;21187;50.976;13.720;2024-03-25T23:42:19;97141.44;;;4.94;51.42
34983;BME280;21187;50.976;13.720;2024-03-25T23:47:20;97134.50;;;4.93;51.40
34983;BME280;21187;50.976;13.720;2024-03-25T23:52:20;97122.31;;;4.96;50.62
34983;BME280;21187;50.976;13.720;2024-03-25T23:57:21;97110.94;;;4.99;50.52
